KHYR/HYR METAR and TAF weather

Enter ICAO airport designator
Station Type Date Time Source
KHYR METAR 2022/01/29 11:05 UTC NOAA

KHYR 291105Z AUTO 20005KT 10SM OVC014 M13/M19 A3005 RMK AO2 T11331189


Station Type Date Time Source
KHYR Decoded METAR 2022/01/29 11:05 UTC NOAA

HAYWARD MUNICIPAL AIRPORT, WI, United States (KHYR) 46-01N 91-27W 370M
Jan 29, 2022 - 06:05 AM EST / 2022.01.29 1105 UTC
Wind: from the SSW (200 degrees) at 6 MPH (5 KT):0
Visibility: 10 mile(s):0
Sky conditions: overcast
Temperature: 8.1 F (-13.3 C)
Windchill: -2 F (-19 C):1
Dew Point: -2.0 F (-18.9 C)
Relative Humidity: 62%
Pressure (altimeter): 30.05 in. Hg (1017 hPa)
ob: KHYR 291105Z AUTO 20005KT 10SM OVC014 M13/M19 A3005 RMK AO2 T11331189
cycle: 11

Station Type Date Time Source
KHYR TAF 2022/01/29 06:24 UTC NOAA

TAF KHYR 290522Z 2906/3006 00000KT P6SM BKN025 BKN120
FM291500 16007KT P6SM OVC120
FM292200 22005KT P6SM BKN025
FM300000 VRB03KT P6SM BKN025

Example: see airport list